sensor_id;sensor_type;location;lat;lon;timestamp;P1;durP1;ratioP1;P2;durP2;ratioP2
12005;SDS011;6062;47.294;12.182;2023-03-20T00:02:00;10.88;;;1.33;;
12005;SDS011;6062;47.294;12.182;2023-03-20T00:04:28;0.80;;;0.80;;
12005;SDS011;6062;47.294;12.182;2023-03-20T00:06:54;0.95;;;0.95;;
12005;SDS011;6062;47.294;12.182;2023-03-20T00:09:20;38.80;;;1.50;;
12005;SDS011;6062;47.294;12.182;2023-03-20T00:11:47;19.13;;;1.25;;
12005;SDS011;6062;47.294;12.182;2023-03-20T00:14:16;28.87;;;1.47;;
12005;SDS011;6062;47.294;12.182;2023-03-20T00:16:46;14.35;;;1.13;;
12005;SDS011;6062;47.294;12.182;2023-03-20T00:19:18;32.43;;;1.80;;
12005;SDS011;6062;47.294;12.182;2023-03-20T00:21:49;44.05;;;1.83;;
12005;SDS011;6062;47.294;12.182;2023-03-20T00:24:17;13.18;;;1.10;;
12005;SDS011;6062;47.294;12.182;2023-03-20T00:26:44;1.65;;;0.93;;
12005;SDS011;6062;47.294;12.182;2023-03-20T00:29:22;7.67;;;1.00;;
12005;SDS011;6062;47.294;12.182;2023-03-20T00:31:55;0.90;;;0.90;;
12005;SDS011;6062;47.294;12.182;2023-03-20T00:34:23;0.88;;;0.88;;
12005;SDS011;6062;47.294;12.182;2023-03-20T00:36:53;11.23;;;1.00;;
12005;SDS011;6062;47.294;12.182;2023-03-20T00:39:23;24.20;;;1.33;;
12005;SDS011;6062;47.294;12.182;2023-03-20T00:41:50;3.05;;;0.85;;
12005;SDS011;6062;47.294;12.182;2023-03-20T00:44:31;1.00;;;0.95;;
12005;SDS011;6062;47.294;12.182;2023-03-20T00:49:46;1.42;;;1.33;;
12005;SDS011;6062;47.294;12.182;2023-03-20T00:52:14;1.30;;;1.20;;
12005;SDS011;6062;47.294;12.182;2023-03-20T00:54:42;1.30;;;1.20;;
12005;SDS011;6062;47.294;12.182;2023-03-20T00:57:13;1.35;;;1.10;;
12005;SDS011;6062;47.294;12.182;2023-03-20T00:59:52;1.35;;;1.25;;
12005;SDS011;6062;47.294;12.182;2023-03-20T01:02:25;1.27;;;1.17;;
12005;SDS011;6062;47.294;12.182;2023-03-20T01:04:53;1.30;;;1.20;;
12005;SDS011;6062;47.294;12.182;2023-03-20T01:07:19;1.40;;;1.23;;
12005;SDS011;6062;47.294;12.182;2023-03-20T01:09:45;2.20;;;1.02;;
12005;SDS011;6062;47.294;12.182;2023-03-20T01:12:11;1.20;;;1.10;;
12005;SDS011;6062;47.294;12.182;2023-03-20T01:14:39;1.20;;;1.10;;
12005;SDS011;6062;47.294;12.182;2023-03-20T01:17:16;1.20;;;1.10;;
12005;SDS011;6062;47.294;12.182;2023-03-20T01:19:45;1.48;;;1.38;;
12005;SDS011;6062;47.294;12.182;2023-03-20T01:22:11;1.40;;;1.30;;
12005;SDS011;6062;47.294;12.182;2023-03-20T01:24:38;1.48;;;1.38;;
12005;SDS011;6062;47.294;12.182;2023-03-20T01:27:04;1.20;;;1.10;;
12005;SDS011;6062;47.294;12.182;2023-03-20T01:29:40;1.38;;;1.27;;
12005;SDS011;6062;47.294;12.182;2023-03-20T01:32:25;1.20;;;1.10;;
12005;SDS011;6062;47.294;12.182;2023-03-20T01:34:50;1.42;;;1.20;;
12005;SDS011;6062;47.294;12.182;2023-03-20T01:37:20;1.50;;;1.40;;
12005;SDS011;6062;47.294;12.182;2023-03-20T01:39:52;1.60;;;1.40;;
12005;SDS011;6062;47.294;12.182;2023-03-20T01:42:19;1.47;;;1.33;;
12005;SDS011;6062;47.294;12.182;2023-03-20T01:44:45;1.50;;;1.30;;
12005;SDS011;6062;47.294;12.182;2023-03-20T01:47:16;1.48;;;1.33;;
12005;SDS011;6062;47.294;12.182;2023-03-20T01:52:59;1.37;;;1.27;;
12005;SDS011;6062;47.294;12.182;2023-03-20T01:55:35;1.30;;;1.20;;
12005;SDS011;6062;47.294;12.182;2023-03-20T01:58:06;1.30;;;1.20;;
12005;SDS011;6062;47.294;12.182;2023-03-20T02:00:39;1.30;;;1.20;;
12005;SDS011;6062;47.294;12.182;2023-03-20T02:03:05;1.40;;;1.30;;
12005;SDS011;6062;47.294;12.182;2023-03-20T02:05:33;1.10;;;1.00;;
12005;SDS011;6062;47.294;12.182;2023-03-20T02:08:04;1.20;;;1.10;;
12005;SDS011;6062;47.294;12.182;2023-03-20T02:10:55;1.10;;;1.00;;
12005;SDS011;6062;47.294;12.182;2023-03-20T02:13:25;1.30;;;1.20;;
12005;SDS011;6062;47.294;12.182;2023-03-20T02:16:02;1.27;;;1.10;;
12005;SDS011;6062;47.294;12.182;2023-03-20T02:18:36;1.30;;;1.20;;
12005;SDS011;6062;47.294;12.182;2023-03-20T02:32:59;1.33;;;1.23;;
12005;SDS011;6062;47.294;12.182;2023-03-20T02:41:53;55.13;;;2.27;;
12005;SDS011;6062;47.294;12.182;2023-03-20T02:47:12;41.67;;;2.43;;
12005;SDS011;6062;47.294;12.182;2023-03-20T02:56:11;48.57;;;2.33;;
12005;SDS011;6062;47.294;12.182;2023-03-20T02:59:04;13.47;;;1.70;;
12005;SDS011;6062;47.294;12.182;2023-03-20T03:02:38;7.53;;;1.25;;
12005;SDS011;6062;47.294;12.182;2023-03-20T03:04:54;4.27;;;1.13;;
12005;SDS011;6062;47.294;12.182;2023-03-20T03:07:25;1.20;;;1.10;;
12005;SDS011;6062;47.294;12.182;2023-03-20T03:10:30;1.10;;;1.00;;
12005;SDS011;6062;47.294;12.182;2023-03-20T03:12:54;1.20;;;1.10;;
12005;SDS011;6062;47.294;12.182;2023-03-20T03:15:34;1.33;;;1.10;;
12005;SDS011;6062;47.294;12.182;2023-03-20T03:18:05;1.30;;;1.20;;
12005;SDS011;6062;47.294;12.182;2023-03-20T03:20:37;1.20;;;1.10;;
12005;SDS011;6062;47.294;12.182;2023-03-20T03:23:04;0.90;;;0.90;;
12005;SDS011;6062;47.294;12.182;2023-03-20T03:25:32;0.90;;;0.90;;
12005;SDS011;6062;47.294;12.182;2023-03-20T03:28:05;1.40;;;1.27;;
12005;SDS011;6062;47.294;12.182;2023-03-20T03:30:36;1.08;;;0.98;;
12005;SDS011;6062;47.294;12.182;2023-03-20T03:33:13;1.10;;;1.00;;
12005;SDS011;6062;47.294;12.182;2023-03-20T03:35:46;1.10;;;1.00;;
12005;SDS011;6062;47.294;12.182;2023-03-20T03:38:23;0.90;;;0.90;;
12005;SDS011;6062;47.294;12.182;2023-03-20T03:43:42;0.90;;;0.90;;
12005;SDS011;6062;47.294;12.182;2023-03-20T03:46:45;0.90;;;0.90;;
12005;SDS011;6062;47.294;12.182;2023-03-20T03:49:19;0.80;;;0.80;;
12005;SDS011;6062;47.294;12.182;2023-03-20T03:51:55;0.83;;;0.83;;
12005;SDS011;6062;47.294;12.182;2023-03-20T03:54:40;3.27;;;1.20;;
12005;SDS011;6062;47.294;12.182;2023-03-20T03:57:13;3.80;;;1.23;;
12005;SDS011;6062;47.294;12.182;2023-03-20T03:59:46;46.63;;;2.30;;
12005;SDS011;6062;47.294;12.182;2023-03-20T04:02:16;222.70;;;5.33;;
12005;SDS011;6062;47.294;12.182;2023-03-20T04:04:47;157.50;;;5.30;;
12005;SDS011;6062;47.294;12.182;2023-03-20T04:07:16;1.13;;;1.03;;
12005;SDS011;6062;47.294;12.182;2023-03-20T04:09:42;7.53;;;1.67;;
12005;SDS011;6062;47.294;12.182;2023-03-20T04:12:20;3.87;;;1.37;;
12005;SDS011;6062;47.294;12.182;2023-03-20T04:14:58;7.90;;;1.20;;
12005;SDS011;6062;47.294;12.182;2023-03-20T04:17:24;113.28;;;4.20;;
12005;SDS011;6062;47.294;12.182;2023-03-20T04:19:50;240.47;;;5.30;;
12005;SDS011;6062;47.294;12.182;2023-03-20T04:22:15;216.05;;;5.60;;
12005;SDS011;6062;47.294;12.182;2023-03-20T04:24:41;21.43;;;1.43;;
12005;SDS011;6062;47.294;12.182;2023-03-20T04:27:07;33.00;;;1.65;;
12005;SDS011;6062;47.294;12.182;2023-03-20T04:29:32;14.93;;;1.40;;
12005;SDS011;6062;47.294;12.182;2023-03-20T04:31:58;2.78;;;1.20;;
12005;SDS011;6062;47.294;12.182;2023-03-20T04:34:24;0.83;;;0.83;;
12005;SDS011;6062;47.294;12.182;2023-03-20T04:36:49;0.90;;;0.87;;
12005;SDS011;6062;47.294;12.182;2023-03-20T04:39:15;12.33;;;1.40;;
12005;SDS011;6062;47.294;12.182;2023-03-20T04:41:41;88.00;;;3.10;;
12005;SDS011;6062;47.294;12.182;2023-03-20T04:44:07;14.25;;;1.20;;
12005;SDS011;6062;47.294;12.182;2023-03-20T04:46:33;67.70;;;2.47;;
12005;SDS011;6062;47.294;12.182;2023-03-20T04:48:58;10.60;;;1.17;;
12005;SDS011;6062;47.294;12.182;2023-03-20T04:51:24;245.40;;;7.10;;
12005;SDS011;6062;47.294;12.182;2023-03-20T04:53:50;260.23;;;8.20;;
12005;SDS011;6062;47.294;12.182;2023-03-20T04:56:16;377.93;;;10.63;;
12005;SDS011;6062;47.294;12.182;2023-03-20T04:58:41;583.10;;;17.40;;
12005;SDS011;6062;47.294;12.182;2023-03-20T05:01:07;635.70;;;21.60;;
12005;SDS011;6062;47.294;12.182;2023-03-20T05:03:33;369.07;;;11.83;;
12005;SDS011;6062;47.294;12.182;2023-03-20T05:05:59;451.43;;;14.10;;
12005;SDS011;6062;47.294;12.182;2023-03-20T05:08:25;352.13;;;11.63;;
12005;SDS011;6062;47.294;12.182;2023-03-20T05:10:51;314.60;;;9.07;;
12005;SDS011;6062;47.294;12.182;2023-03-20T05:13:17;185.97;;;5.30;;
12005;SDS011;6062;47.294;12.182;2023-03-20T05:15:43;285.93;;;7.13;;
12005;SDS011;6062;47.294;12.182;2023-03-20T05:18:08;337.60;;;9.37;;
12005;SDS011;6062;47.294;12.182;2023-03-20T05:20:34;224.33;;;5.53;;
12005;SDS011;6062;47.294;12.182;2023-03-20T05:23:00;352.37;;;12.50;;
12005;SDS011;6062;47.294;12.182;2023-03-20T05:25:27;301.07;;;10.07;;
12005;SDS011;6062;47.294;12.182;2023-03-20T05:27:53;165.70;;;4.63;;
12005;SDS011;6062;47.294;12.182;2023-03-20T05:30:19;309.17;;;9.67;;
12005;SDS011;6062;47.294;12.182;2023-03-20T05:32:45;557.80;;;17.97;;
12005;SDS011;6062;47.294;12.182;2023-03-20T05:35:13;225.87;;;5.33;;
12005;SDS011;6062;47.294;12.182;2023-03-20T05:37:39;81.03;;;3.40;;
12005;SDS011;6062;47.294;12.182;2023-03-20T05:40:05;83.70;;;2.83;;
12005;SDS011;6062;47.294;12.182;2023-03-20T05:42:36;43.77;;;1.93;;
12005;SDS011;6062;47.294;12.182;2023-03-20T05:45:02;31.73;;;1.60;;
12005;SDS011;6062;47.294;12.182;2023-03-20T05:47:28;28.70;;;1.50;;
12005;SDS011;6062;47.294;12.182;2023-03-20T05:49:54;238.43;;;5.87;;
12005;SDS011;6062;47.294;12.182;2023-03-20T05:52:20;27.63;;;1.30;;
12005;SDS011;6062;47.294;12.182;2023-03-20T05:54:46;8.40;;;0.87;;
12005;SDS011;6062;47.294;12.182;2023-03-20T05:57:12;21.47;;;1.60;;
12005;SDS011;6062;47.294;12.182;2023-03-20T05:59:38;6.13;;;0.90;;
12005;SDS011;6062;47.294;12.182;2023-03-20T06:02:03;9.33;;;0.90;;
12005;SDS011;6062;47.294;12.182;2023-03-20T06:04:29;0.70;;;0.70;;
12005;SDS011;6062;47.294;12.182;2023-03-20T06:06:55;2.63;;;0.80;;
12005;SDS011;6062;47.294;12.182;2023-03-20T06:09:21;0.73;;;0.73;;
12005;SDS011;6062;47.294;12.182;2023-03-20T06:11:47;0.50;;;0.50;;
12005;SDS011;6062;47.294;12.182;2023-03-20T06:14:12;0.50;;;0.50;;
12005;SDS011;6062;47.294;12.182;2023-03-20T06:16:38;0.53;;;0.53;;
12005;SDS011;6062;47.294;12.182;2023-03-20T06:19:04;1.93;;;0.60;;
12005;SDS011;6062;47.294;12.182;2023-03-20T06:21:30;7.50;;;0.73;;
12005;SDS011;6062;47.294;12.182;2023-03-20T06:23:56;165.43;;;4.43;;
12005;SDS011;6062;47.294;12.182;2023-03-20T06:26:23;414.05;;;11.88;;
12005;SDS011;6062;47.294;12.182;2023-03-20T06:28:50;47.23;;;2.10;;
12005;SDS011;6062;47.294;12.182;2023-03-20T06:31:16;146.82;;;3.90;;
12005;SDS011;6062;47.294;12.182;2023-03-20T06:33:41;37.92;;;1.30;;
12005;SDS011;6062;47.294;12.182;2023-03-20T06:36:08;184.82;;;5.32;;
12005;SDS011;6062;47.294;12.182;2023-03-20T06:38:34;180.05;;;5.90;;
12005;SDS011;6062;47.294;12.182;2023-03-20T06:41:00;31.83;;;1.30;;
12005;SDS011;6062;47.294;12.182;2023-03-20T06:43:26;33.88;;;1.45;;
12005;SDS011;6062;47.294;12.182;2023-03-20T06:45:52;1.67;;;0.60;;
12005;SDS011;6062;47.294;12.182;2023-03-20T06:48:17;0.60;;;0.60;;
12005;SDS011;6062;47.294;12.182;2023-03-20T06:50:46;0.50;;;0.50;;
12005;SDS011;6062;47.294;12.182;2023-03-20T06:53:14;0.40;;;0.40;;
12005;SDS011;6062;47.294;12.182;2023-03-20T06:55:40;0.40;;;0.40;;
12005;SDS011;6062;47.294;12.182;2023-03-20T06:58:10;1.43;;;0.50;;
12005;SDS011;6062;47.294;12.182;2023-03-20T07:00:36;1.65;;;0.55;;
12005;SDS011;6062;47.294;12.182;2023-03-20T07:03:01;0.47;;;0.47;;
12005;SDS011;6062;47.294;12.182;2023-03-20T07:05:28;0.50;;;0.50;;
12005;SDS011;6062;47.294;12.182;2023-03-20T07:07:54;2.70;;;0.50;;
12005;SDS011;6062;47.294;12.182;2023-03-20T07:10:19;6.80;;;0.70;;
12005;SDS011;6062;47.294;12.182;2023-03-20T07:12:45;8.60;;;0.60;;
12005;SDS011;6062;47.294;12.182;2023-03-20T07:15:12;38.25;;;1.52;;
12005;SDS011;6062;47.294;12.182;2023-03-20T07:17:38;0.70;;;0.40;;
12005;SDS011;6062;47.294;12.182;2023-03-20T07:20:03;1.85;;;0.40;;
12005;SDS011;6062;47.294;12.182;2023-03-20T07:22:30;0.40;;;0.40;;
12005;SDS011;6062;47.294;12.182;2023-03-20T07:24:55;0.47;;;0.47;;
12005;SDS011;6062;47.294;12.182;2023-03-20T07:27:21;0.82;;;0.40;;
12005;SDS011;6062;47.294;12.182;2023-03-20T07:29:48;6.35;;;0.63;;
12005;SDS011;6062;47.294;12.182;2023-03-20T07:32:13;0.65;;;0.40;;
12005;SDS011;6062;47.294;12.182;2023-03-20T07:34:41;2.50;;;0.45;;
12005;SDS011;6062;47.294;12.182;2023-03-20T07:37:08;5.85;;;0.55;;
12005;SDS011;6062;47.294;12.182;2023-03-20T07:39:34;5.30;;;0.63;;
12005;SDS011;6062;47.294;12.182;2023-03-20T07:42:00;0.35;;;0.35;;
12005;SDS011;6062;47.294;12.182;2023-03-20T07:44:26;0.35;;;0.35;;
12005;SDS011;6062;47.294;12.182;2023-03-20T07:46:51;0.30;;;0.30;;
12005;SDS011;6062;47.294;12.182;2023-03-20T07:49:17;0.40;;;0.40;;
12005;SDS011;6062;47.294;12.182;2023-03-20T07:51:43;0.43;;;0.43;;
12005;SDS011;6062;47.294;12.182;2023-03-20T07:54:10;0.40;;;0.40;;
12005;SDS011;6062;47.294;12.182;2023-03-20T07:56:36;0.40;;;0.40;;
12005;SDS011;6062;47.294;12.182;2023-03-20T07:59:02;0.40;;;0.40;;
12005;SDS011;6062;47.294;12.182;2023-03-20T08:01:28;0.40;;;0.40;;
12005;SDS011;6062;47.294;12.182;2023-03-20T08:03:54;0.43;;;0.43;;
12005;SDS011;6062;47.294;12.182;2023-03-20T08:06:20;0.30;;;0.30;;
12005;SDS011;6062;47.294;12.182;2023-03-20T08:08:45;0.40;;;0.40;;
12005;SDS011;6062;47.294;12.182;2023-03-20T08:11:11;0.40;;;0.40;;
12005;SDS011;6062;47.294;12.182;2023-03-20T08:13:37;0.35;;;0.35;;
12005;SDS011;6062;47.294;12.182;2023-03-20T08:16:03;0.50;;;0.50;;
12005;SDS011;6062;47.294;12.182;2023-03-20T08:18:29;0.40;;;0.40;;
12005;SDS011;6062;47.294;12.182;2023-03-20T08:20:55;0.40;;;0.40;;
12005;SDS011;6062;47.294;12.182;2023-03-20T08:23:21;0.40;;;0.40;;
12005;SDS011;6062;47.294;12.182;2023-03-20T08:25:50;0.75;;;0.50;;
12005;SDS011;6062;47.294;12.182;2023-03-20T08:28:18;0.50;;;0.50;;
12005;SDS011;6062;47.294;12.182;2023-03-20T08:30:44;0.40;;;0.40;;
12005;SDS011;6062;47.294;12.182;2023-03-20T08:33:11;0.50;;;0.50;;
12005;SDS011;6062;47.294;12.182;2023-03-20T08:35:38;0.50;;;0.50;;
12005;SDS011;6062;47.294;12.182;2023-03-20T08:38:04;0.50;;;0.50;;
12005;SDS011;6062;47.294;12.182;2023-03-20T08:40:30;0.50;;;0.50;;
12005;SDS011;6062;47.294;12.182;2023-03-20T08:42:56;0.40;;;0.40;;
12005;SDS011;6062;47.294;12.182;2023-03-20T08:45:23;0.57;;;0.57;;
12005;SDS011;6062;47.294;12.182;2023-03-20T08:47:50;2.30;;;0.52;;
12005;SDS011;6062;47.294;12.182;2023-03-20T08:50:17;10.80;;;0.80;;
12005;SDS011;6062;47.294;12.182;2023-03-20T08:52:43;13.57;;;0.90;;
12005;SDS011;6062;47.294;12.182;2023-03-20T08:55:11;54.75;;;1.85;;
12005;SDS011;6062;47.294;12.182;2023-03-20T08:57:39;21.10;;;1.10;;
12005;SDS011;6062;47.294;12.182;2023-03-20T09:00:05;1.13;;;0.60;;
12005;SDS011;6062;47.294;12.182;2023-03-20T09:02:33;71.07;;;3.15;;
12005;SDS011;6062;47.294;12.182;2023-03-20T09:05:00;14.60;;;1.10;;
12005;SDS011;6062;47.294;12.182;2023-03-20T09:07:25;5.00;;;0.60;;
12005;SDS011;6062;47.294;12.182;2023-03-20T09:09:51;20.83;;;1.25;;
12005;SDS011;6062;47.294;12.182;2023-03-20T09:12:17;3.80;;;0.77;;
12005;SDS011;6062;47.294;12.182;2023-03-20T09:14:43;2.63;;;0.70;;
12005;SDS011;6062;47.294;12.182;2023-03-20T09:17:08;0.70;;;0.70;;
12005;SDS011;6062;47.294;12.182;2023-03-20T09:19:34;0.70;;;0.70;;
12005;SDS011;6062;47.294;12.182;2023-03-20T09:22:03;0.70;;;0.70;;
12005;SDS011;6062;47.294;12.182;2023-03-20T09:24:30;0.60;;;0.60;;
12005;SDS011;6062;47.294;12.182;2023-03-20T09:26:57;0.82;;;0.82;;
12005;SDS011;6062;47.294;12.182;2023-03-20T09:29:24;0.70;;;0.70;;
12005;SDS011;6062;47.294;12.182;2023-03-20T09:31:54;0.80;;;0.80;;
12005;SDS011;6062;47.294;12.182;2023-03-20T09:34:19;2.05;;;0.85;;
12005;SDS011;6062;47.294;12.182;2023-03-20T09:36:46;0.82;;;0.82;;
12005;SDS011;6062;47.294;12.182;2023-03-20T09:39:12;0.65;;;0.65;;
12005;SDS011;6062;47.294;12.182;2023-03-20T09:41:37;0.80;;;0.80;;
12005;SDS011;6062;47.294;12.182;2023-03-20T09:44:30;0.80;;;0.80;;
12005;SDS011;6062;47.294;12.182;2023-03-20T09:53:03;0.80;;;0.80;;
12005;SDS011;6062;47.294;12.182;2023-03-20T09:55:51;8.38;;;0.90;;
12005;SDS011;6062;47.294;12.182;2023-03-20T09:58:24;24.15;;;1.40;;
12005;SDS011;6062;47.294;12.182;2023-03-20T10:01:03;17.75;;;1.20;;
12005;SDS011;6062;47.294;12.182;2023-03-20T10:03:42;122.85;;;4.15;;
12005;SDS011;6062;47.294;12.182;2023-03-20T10:06:16;0.95;;;0.60;;
12005;SDS011;6062;47.294;12.182;2023-03-20T10:08:43;0.82;;;0.82;;
12005;SDS011;6062;47.294;12.182;2023-03-20T10:22:15;56.35;;;2.13;;
12005;SDS011;6062;47.294;12.182;2023-03-20T10:24:58;348.73;;;10.05;;
12005;SDS011;6062;47.294;12.182;2023-03-20T10:28:09;283.88;;;8.20;;
12005;SDS011;6062;47.294;12.182;2023-03-20T10:30:44;6.55;;;1.13;;
12005;SDS011;6062;47.294;12.182;2023-03-20T10:36:58;129.27;;;3.67;;
12005;SDS011;6062;47.294;12.182;2023-03-20T10:42:40;231.13;;;6.25;;
12005;SDS011;6062;47.294;12.182;2023-03-20T10:47:59;243.48;;;5.65;;
12005;SDS011;6062;47.294;12.182;2023-03-20T10:50:36;196.05;;;6.00;;
12005;SDS011;6062;47.294;12.182;2023-03-20T10:53:18;163.25;;;5.20;;
12005;SDS011;6062;47.294;12.182;2023-03-20T10:56:07;239.88;;;7.50;;
12005;SDS011;6062;47.294;12.182;2023-03-20T10:58:40;168.95;;;5.75;;
12005;SDS011;6062;47.294;12.182;2023-03-20T11:01:10;53.45;;;2.45;;
12005;SDS011;6062;47.294;12.182;2023-03-20T11:03:36;54.15;;;2.42;;
12005;SDS011;6062;47.294;12.182;2023-03-20T11:06:16;56.83;;;2.33;;
12005;SDS011;6062;47.294;12.182;2023-03-20T11:08:48;29.60;;;1.63;;
12005;SDS011;6062;47.294;12.182;2023-03-20T11:11:27;25.83;;;1.60;;
12005;SDS011;6062;47.294;12.182;2023-03-20T11:14:01;0.70;;;0.70;;
12005;SDS011;6062;47.294;12.182;2023-03-20T11:16:55;0.88;;;0.88;;
12005;SDS011;6062;47.294;12.182;2023-03-20T11:19:28;0.70;;;0.70;;
12005;SDS011;6062;47.294;12.182;2023-03-20T11:24:46;0.70;;;0.70;;
12005;SDS011;6062;47.294;12.182;2023-03-20T11:27:18;1.00;;;0.90;;
12005;SDS011;6062;47.294;12.182;2023-03-20T11:29:51;0.70;;;0.70;;
12005;SDS011;6062;47.294;12.182;2023-03-20T11:37:43;0.50;;;0.50;;
12005;SDS011;6062;47.294;12.182;2023-03-20T11:40:20;0.93;;;0.73;;
12005;SDS011;6062;47.294;12.182;2023-03-20T11:42:56;0.57;;;0.57;;
12005;SDS011;6062;47.294;12.182;2023-03-20T11:45:34;0.88;;;0.60;;
12005;SDS011;6062;47.294;12.182;2023-03-20T11:48:04;0.50;;;0.50;;
12005;SDS011;6062;47.294;12.182;2023-03-20T11:50:48;0.50;;;0.50;;
12005;SDS011;6062;47.294;12.182;2023-03-20T11:53:30;0.60;;;0.60;;
12005;SDS011;6062;47.294;12.182;2023-03-20T11:58:45;0.57;;;0.57;;
12005;SDS011;6062;47.294;12.182;2023-03-20T12:01:20;0.52;;;0.52;;
12005;SDS011;6062;47.294;12.182;2023-03-20T12:06:38;0.50;;;0.50;;
12005;SDS011;6062;47.294;12.182;2023-03-20T12:11:54;0.60;;;0.60;;
12005;SDS011;6062;47.294;12.182;2023-03-20T12:14:55;0.60;;;0.60;;
12005;SDS011;6062;47.294;12.182;2023-03-20T12:17:58;0.50;;;0.50;;
12005;SDS011;6062;47.294;12.182;2023-03-20T12:20:33;0.50;;;0.50;;
12005;SDS011;6062;47.294;12.182;2023-03-20T12:37:02;0.60;;;0.60;;
12005;SDS011;6062;47.294;12.182;2023-03-20T12:39:31;0.70;;;0.70;;
12005;SDS011;6062;47.294;12.182;2023-03-20T12:45:12;0.60;;;0.60;;
12005;SDS011;6062;47.294;12.182;2023-03-20T12:50:58;0.70;;;0.70;;
12005;SDS011;6062;47.294;12.182;2023-03-20T12:56:44;0.75;;;0.75;;
12005;SDS011;6062;47.294;12.182;2023-03-20T13:02:55;0.65;;;0.65;;
12005;SDS011;6062;47.294;12.182;2023-03-20T13:08:42;0.70;;;0.70;;
12005;SDS011;6062;47.294;12.182;2023-03-20T13:14:34;1.10;;;0.73;;
12005;SDS011;6062;47.294;12.182;2023-03-20T13:17:18;0.50;;;0.50;;
12005;SDS011;6062;47.294;12.182;2023-03-20T13:20:15;1.58;;;0.70;;
12005;SDS011;6062;47.294;12.182;2023-03-20T13:22:53;23.17;;;1.13;;
12005;SDS011;6062;47.294;12.182;2023-03-20T13:33:47;11.65;;;1.08;;
12005;SDS011;6062;47.294;12.182;2023-03-20T13:37:15;31.95;;;1.55;;
12005;SDS011;6062;47.294;12.182;2023-03-20T13:39:57;0.90;;;0.90;;
12005;SDS011;6062;47.294;12.182;2023-03-20T13:42:54;80.90;;;3.22;;
12005;SDS011;6062;47.294;12.182;2023-03-20T13:45:50;20.90;;;1.30;;
12005;SDS011;6062;47.294;12.182;2023-03-20T13:48:36;10.82;;;1.10;;
12005;SDS011;6062;47.294;12.182;2023-03-20T13:56:56;0.80;;;0.80;;
12005;SDS011;6062;47.294;12.182;2023-03-20T14:03:02;0.95;;;0.90;;
12005;SDS011;6062;47.294;12.182;2023-03-20T14:05:40;4.55;;;0.95;;
12005;SDS011;6062;47.294;12.182;2023-03-20T14:11:03;0.98;;;0.90;;
12005;SDS011;6062;47.294;12.182;2023-03-20T14:13:29;0.90;;;0.80;;
12005;SDS011;6062;47.294;12.182;2023-03-20T14:15:59;1.42;;;1.17;;
12005;SDS011;6062;47.294;12.182;2023-03-20T14:18:33;1.15;;;1.00;;
12005;SDS011;6062;47.294;12.182;2023-03-20T14:21:01;1.23;;;0.95;;
12005;SDS011;6062;47.294;12.182;2023-03-20T14:23:37;0.90;;;0.90;;
12005;SDS011;6062;47.294;12.182;2023-03-20T14:28:59;0.75;;;0.75;;
12005;SDS011;6062;47.294;12.182;2023-03-20T14:31:47;1.38;;;1.00;;
12005;SDS011;6062;47.294;12.182;2023-03-20T14:34:20;10.02;;;1.08;;
12005;SDS011;6062;47.294;12.182;2023-03-20T14:39:35;33.58;;;1.80;;
12005;SDS011;6062;47.294;12.182;2023-03-20T14:42:34;2.03;;;1.13;;
12005;SDS011;6062;47.294;12.182;2023-03-20T14:48:30;34.50;;;1.98;;
12005;SDS011;6062;47.294;12.182;2023-03-20T14:51:06;1.25;;;0.90;;
12005;SDS011;6062;47.294;12.182;2023-03-20T14:56:45;2.75;;;1.00;;
12005;SDS011;6062;47.294;12.182;2023-03-20T14:59:14;3.72;;;1.00;;
12005;SDS011;6062;47.294;12.182;2023-03-20T15:04:37;1.92;;;1.00;;
12005;SDS011;6062;47.294;12.182;2023-03-20T15:09:42;1.67;;;1.00;;
12005;SDS011;6062;47.294;12.182;2023-03-20T15:12:12;2.25;;;1.00;;
12005;SDS011;6062;47.294;12.182;2023-03-20T15:14:44;3.67;;;0.98;;
12005;SDS011;6062;47.294;12.182;2023-03-20T15:17:23;1.73;;;1.00;;
12005;SDS011;6062;47.294;12.182;2023-03-20T15:20:14;3.85;;;1.15;;
12005;SDS011;6062;47.294;12.182;2023-03-20T15:22:48;8.70;;;1.27;;
12005;SDS011;6062;47.294;12.182;2023-03-20T15:25:21;1.90;;;1.20;;
12005;SDS011;6062;47.294;12.182;2023-03-20T15:27:52;4.50;;;1.17;;
12005;SDS011;6062;47.294;12.182;2023-03-20T15:30:20;1.10;;;1.00;;
12005;SDS011;6062;47.294;12.182;2023-03-20T15:32:47;2.35;;;1.10;;
12005;SDS011;6062;47.294;12.182;2023-03-20T15:35:17;1.17;;;1.08;;
12005;SDS011;6062;47.294;12.182;2023-03-20T15:37:47;1.17;;;1.00;;
12005;SDS011;6062;47.294;12.182;2023-03-20T15:40:21;0.90;;;0.90;;
12005;SDS011;6062;47.294;12.182;2023-03-20T15:43:03;1.20;;;1.10;;
12005;SDS011;6062;47.294;12.182;2023-03-20T15:45:38;1.05;;;1.00;;
12005;SDS011;6062;47.294;12.182;2023-03-20T15:48:10;1.05;;;0.95;;
12005;SDS011;6062;47.294;12.182;2023-03-20T15:50:41;1.20;;;1.10;;
12005;SDS011;6062;47.294;12.182;2023-03-20T15:53:15;1.25;;;1.15;;
12005;SDS011;6062;47.294;12.182;2023-03-20T15:56:02;0.90;;;0.90;;
12005;SDS011;6062;47.294;12.182;2023-03-20T15:58:31;1.00;;;1.00;;
12005;SDS011;6062;47.294;12.182;2023-03-20T16:00:58;1.10;;;1.00;;
12005;SDS011;6062;47.294;12.182;2023-03-20T16:03:27;1.10;;;1.00;;
12005;SDS011;6062;47.294;12.182;2023-03-20T16:05:57;1.10;;;1.00;;
12005;SDS011;6062;47.294;12.182;2023-03-20T16:08:26;1.05;;;1.00;;
12005;SDS011;6062;47.294;12.182;2023-03-20T16:10:58;1.17;;;1.02;;
12005;SDS011;6062;47.294;12.182;2023-03-20T16:13:39;1.20;;;1.10;;
12005;SDS011;6062;47.294;12.182;2023-03-20T16:16:21;1.30;;;1.20;;
12005;SDS011;6062;47.294;12.182;2023-03-20T16:18:48;1.20;;;1.10;;
12005;SDS011;6062;47.294;12.182;2023-03-20T16:21:17;1.17;;;1.08;;
12005;SDS011;6062;47.294;12.182;2023-03-20T16:23:55;1.30;;;1.20;;
12005;SDS011;6062;47.294;12.182;2023-03-20T16:26:23;1.20;;;1.10;;
12005;SDS011;6062;47.294;12.182;2023-03-20T16:28:54;1.00;;;1.00;;
12005;SDS011;6062;47.294;12.182;2023-03-20T16:31:30;0.90;;;0.90;;
12005;SDS011;6062;47.294;12.182;2023-03-20T16:34:06;1.58;;;1.00;;
12005;SDS011;6062;47.294;12.182;2023-03-20T16:36:47;1.10;;;1.00;;
12005;SDS011;6062;47.294;12.182;2023-03-20T16:39:18;0.90;;;0.90;;
12005;SDS011;6062;47.294;12.182;2023-03-20T16:41:51;1.10;;;1.00;;
12005;SDS011;6062;47.294;12.182;2023-03-20T16:44:47;1.02;;;0.93;;
12005;SDS011;6062;47.294;12.182;2023-03-20T16:47:20;1.08;;;1.00;;
12005;SDS011;6062;47.294;12.182;2023-03-20T16:53:01;0.90;;;0.90;;
12005;SDS011;6062;47.294;12.182;2023-03-20T16:55:33;1.70;;;0.90;;
12005;SDS011;6062;47.294;12.182;2023-03-20T16:58:07;1.00;;;0.93;;
12005;SDS011;6062;47.294;12.182;2023-03-20T17:01:02;1.05;;;1.00;;
12005;SDS011;6062;47.294;12.182;2023-03-20T17:03:36;1.20;;;1.10;;
12005;SDS011;6062;47.294;12.182;2023-03-20T17:08:48;1.00;;;0.90;;
12005;SDS011;6062;47.294;12.182;2023-03-20T17:11:27;1.10;;;1.00;;
12005;SDS011;6062;47.294;12.182;2023-03-20T17:13:59;1.10;;;0.90;;
12005;SDS011;6062;47.294;12.182;2023-03-20T17:16:26;1.02;;;1.00;;
12005;SDS011;6062;47.294;12.182;2023-03-20T17:21:49;0.90;;;0.90;;
12005;SDS011;6062;47.294;12.182;2023-03-20T17:24:15;1.08;;;1.00;;
12005;SDS011;6062;47.294;12.182;2023-03-20T17:26:43;1.00;;;1.00;;
12005;SDS011;6062;47.294;12.182;2023-03-20T17:29:18;1.10;;;1.00;;
12005;SDS011;6062;47.294;12.182;2023-03-20T17:31:44;1.10;;;1.00;;
12005;SDS011;6062;47.294;12.182;2023-03-20T17:34:11;1.48;;;1.10;;
12005;SDS011;6062;47.294;12.182;2023-03-20T17:36:38;0.90;;;0.90;;
12005;SDS011;6062;47.294;12.182;2023-03-20T17:39:04;1.20;;;1.10;;
12005;SDS011;6062;47.294;12.182;2023-03-20T17:41:30;0.98;;;0.95;;
12005;SDS011;6062;47.294;12.182;2023-03-20T17:43:56;0.97;;;0.90;;
12005;SDS011;6062;47.294;12.182;2023-03-20T17:48:57;0.95;;;0.95;;
12005;SDS011;6062;47.294;12.182;2023-03-20T17:51:27;1.00;;;0.90;;